createdAt,value
2023-02-28T00:01:44.557Z,-0.97
2023-02-28T00:04:12.494Z,-0.97
2023-02-28T00:06:40.589Z,-0.90
2023-02-28T00:09:08.492Z,-0.83
2023-02-28T00:11:38.844Z,-0.83
2023-02-28T00:14:06.896Z,-0.78
2023-02-28T00:16:34.900Z,-0.71
2023-02-28T00:19:02.984Z,-0.74
2023-02-28T00:21:31.262Z,-0.72
2023-02-28T00:24:00.580Z,-0.70
2023-02-28T00:26:28.623Z,-0.69
2023-02-28T00:28:56.741Z,-0.81
2023-02-28T00:31:24.796Z,-0.76
2023-02-28T00:33:52.942Z,-0.84
2023-02-28T00:36:22.530Z,-0.84
2023-02-28T00:38:52.029Z,-0.81
2023-02-28T00:41:20.409Z,-0.85
2023-02-28T00:43:49.428Z,-0.81
2023-02-28T00:46:17.434Z,-0.77
2023-02-28T00:48:45.455Z,-0.72
2023-02-28T00:51:13.582Z,-0.71
2023-02-28T00:53:41.612Z,-0.71
2023-02-28T00:56:09.872Z,-0.65
2023-02-28T00:58:37.887Z,-0.67
2023-02-28T01:01:06.441Z,-0.62
2023-02-28T01:03:34.611Z,-0.66
2023-02-28T01:06:02.638Z,-0.64
2023-02-28T01:08:30.602Z,-0.66
2023-02-28T01:10:58.609Z,-0.66
2023-02-28T01:13:26.626Z,-0.70
2023-02-28T01:15:57.527Z,-0.70
2023-02-28T01:18:26.883Z,-0.75
2023-02-28T01:20:55.712Z,-0.70
2023-02-28T01:23:24.975Z,-0.74
2023-02-28T01:25:53.787Z,-0.76
2023-02-28T01:28:22.191Z,-0.73
2023-02-28T01:30:52.496Z,-0.78
2023-02-28T01:33:20.699Z,-0.77
2023-02-28T01:35:49.039Z,-0.76
2023-02-28T01:38:22.467Z,-0.72
2023-02-28T01:40:52.334Z,-0.79
2023-02-28T01:43:24.231Z,-0.77
2023-02-28T01:45:54.710Z,-0.73
2023-02-28T01:48:28.593Z,-0.70
2023-02-28T01:51:02.398Z,-0.70
2023-02-28T01:53:39.652Z,-0.69
2023-02-28T01:56:10.446Z,-0.71
2023-02-28T01:58:39.105Z,-0.68
2023-02-28T02:01:07.255Z,-0.68
2023-02-28T02:03:37.082Z,-0.65
2023-02-28T02:06:06.352Z,-0.65
2023-02-28T02:08:34.228Z,-0.60
2023-02-28T02:11:04.336Z,-0.60
2023-02-28T02:13:35.676Z,-0.62
2023-02-28T02:16:47.726Z,-0.64
2023-02-28T02:19:57.104Z,-0.58
2023-02-28T02:22:52.993Z,-0.58
2023-02-28T02:25:27.737Z,-0.54
2023-02-28T02:28:34.231Z,-0.58
2023-02-28T02:31:07.983Z,-0.56
2023-02-28T02:33:48.092Z,-0.58
2023-02-28T02:36:30.374Z,-0.56
2023-02-28T02:39:05.493Z,-0.61
2023-02-28T02:41:42.975Z,-0.57
2023-02-28T02:44:38.742Z,-0.54
2023-02-28T02:47:11.318Z,-0.51
2023-02-28T02:49:44.763Z,-0.47
2023-02-28T02:52:15.956Z,-0.51
2023-02-28T02:54:48.950Z,-0.47
2023-02-28T02:57:33.438Z,-0.52
2023-02-28T03:00:06.262Z,-0.48
2023-02-28T03:02:35.344Z,-0.49
2023-02-28T03:05:15.663Z,-0.51
2023-02-28T03:07:43.849Z,-0.53
2023-02-28T03:10:33.856Z,-0.60
2023-02-28T03:13:28.559Z,-0.57
2023-02-28T03:16:08.702Z,-0.54
2023-02-28T03:19:10.525Z,-0.57
2023-02-28T03:21:56.654Z,-0.60
2023-02-28T03:24:29.488Z,-0.57
2023-02-28T03:27:08.026Z,-0.66
2023-02-28T03:29:41.842Z,-0.65
2023-02-28T03:32:22.656Z,-0.60
2023-02-28T03:34:59.762Z,-0.59
2023-02-28T03:37:31.620Z,-0.61
2023-02-28T03:40:09.689Z,-0.64
2023-02-28T03:42:41.283Z,-0.59
2023-02-28T03:45:17.531Z,-0.56
2023-02-28T03:47:57.974Z,-0.59
2023-02-28T03:50:34.065Z,-0.59
2023-02-28T03:53:08.530Z,-0.55
2023-02-28T03:55:46.046Z,-0.54
2023-02-28T03:58:28.160Z,-0.53
2023-02-28T04:01:09.131Z,-0.57
2023-02-28T04:03:39.510Z,-0.58
2023-02-28T04:06:14.250Z,-0.54
2023-02-28T04:08:42.166Z,-0.48
2023-02-28T04:11:18.583Z,-0.56
2023-02-28T04:13:47.763Z,-0.63
2023-02-28T04:16:32.150Z,-0.53
2023-02-28T04:19:04.640Z,-0.49
2023-02-28T04:21:40.104Z,-0.49
2023-02-28T04:24:15.127Z,-0.54
2023-02-28T04:26:46.858Z,-0.51
2023-02-28T04:29:20.319Z,-0.52
2023-02-28T04:31:48.487Z,-0.50
2023-02-28T04:34:17.591Z,-0.45
2023-02-28T04:36:46.941Z,-0.43
2023-02-28T04:39:15.967Z,-0.40
2023-02-28T04:41:44.085Z,-0.34
2023-02-28T04:44:15.610Z,-0.32
2023-02-28T04:46:44.663Z,-0.33
2023-02-28T04:49:14.089Z,-0.39
2023-02-28T04:51:42.407Z,-0.38
2023-02-28T04:54:12.086Z,-0.48
2023-02-28T04:56:40.078Z,-0.39
2023-02-28T04:59:08.136Z,-0.36
2023-02-28T05:01:37.475Z,-0.35
2023-02-28T05:04:06.057Z,-0.33
2023-02-28T05:06:34.608Z,-0.31
2023-02-28T05:09:03.822Z,-0.28
2023-02-28T05:11:36.155Z,-0.30
2023-02-28T05:14:07.137Z,-0.26
2023-02-28T05:16:35.292Z,-0.30
2023-02-28T05:19:04.361Z,-0.29
2023-02-28T05:21:37.030Z,-0.25
2023-02-28T05:24:09.078Z,-0.23
2023-02-28T05:26:44.153Z,-0.21
2023-02-28T05:29:12.360Z,-0.20
2023-02-28T05:31:42.713Z,-0.13
2023-02-28T05:34:13.489Z,-0.11
2023-02-28T05:36:42.058Z,-0.04
2023-02-28T05:39:14.178Z,-0.06
2023-02-28T05:41:43.727Z,-0.05
2023-02-28T05:44:13.551Z,-0.01
2023-02-28T05:46:41.926Z,0.02
2023-02-28T05:49:10.314Z,0.06
2023-02-28T05:51:41.140Z,0.09
2023-02-28T05:54:13.849Z,0.15
2023-02-28T05:56:45.178Z,0.17
2023-02-28T05:59:14.165Z,0.21
2023-02-28T06:01:49.282Z,0.11
2023-02-28T06:04:31.065Z,0.12
2023-02-28T06:07:00.678Z,0.26
2023-02-28T06:09:29.097Z,0.28
2023-02-28T06:12:04.769Z,0.16
2023-02-28T06:14:34.376Z,0.23
2023-02-28T06:17:04.562Z,0.35
2023-02-28T06:19:34.816Z,0.42
2023-02-28T06:22:04.253Z,0.43
2023-02-28T06:24:32.640Z,0.51
2023-02-28T06:27:06.597Z,0.62
2023-02-28T06:29:40.809Z,0.66
2023-02-28T06:32:09.483Z,0.73
2023-02-28T06:34:37.493Z,0.78
2023-02-28T06:37:07.592Z,0.88
2023-02-28T06:39:35.617Z,0.88
2023-02-28T06:42:04.922Z,0.86
2023-02-28T06:44:36.416Z,0.70
2023-02-28T06:47:06.668Z,0.74
2023-02-28T06:49:39.259Z,0.71
2023-02-28T06:52:07.369Z,0.85
2023-02-28T06:54:37.646Z,0.85
2023-02-28T06:57:06.677Z,0.94
2023-02-28T06:59:36.328Z,1.03
2023-02-28T07:02:05.010Z,1.07
2023-02-28T07:04:33.648Z,1.01
2023-02-28T07:07:02.072Z,1.23
2023-02-28T07:09:31.259Z,1.19
2023-02-28T07:12:00.208Z,1.40
2023-02-28T07:14:28.438Z,1.52
2023-02-28T07:16:57.038Z,1.55
2023-02-28T07:19:25.530Z,1.48
2023-02-28T07:21:53.927Z,1.61
2023-02-28T07:24:26.827Z,1.46
2023-02-28T07:26:55.194Z,1.76
2023-02-28T07:29:23.829Z,1.89
2023-02-28T07:31:54.376Z,1.65
2023-02-28T07:34:23.861Z,1.79
2023-02-28T07:36:56.350Z,1.90
2023-02-28T07:39:24.688Z,1.63
2023-02-28T07:41:53.027Z,1.60
2023-02-28T07:44:22.948Z,1.93
2023-02-28T07:46:51.096Z,2.07
2023-02-28T07:49:19.498Z,2.21
2023-02-28T07:51:47.697Z,2.34
2023-02-28T07:54:17.724Z,2.04
2023-02-28T07:56:46.145Z,2.31
2023-02-28T07:59:15.004Z,2.15
2023-02-28T08:01:46.293Z,2.27
2023-02-28T08:04:14.423Z,2.35
2023-02-28T08:06:43.314Z,2.39
2023-02-28T08:09:14.041Z,2.45
2023-02-28T08:11:42.068Z,2.22
2023-02-28T08:14:10.230Z,2.28
2023-02-28T08:16:39.950Z,2.42
2023-02-28T08:19:08.366Z,2.65
2023-02-28T08:21:37.359Z,2.69
2023-02-28T08:24:05.850Z,2.83
2023-02-28T08:26:38.642Z,2.98
2023-02-28T08:29:06.975Z,3.14
2023-02-28T08:31:36.930Z,3.00
2023-02-28T08:34:10.575Z,3.13
2023-02-28T08:36:39.904Z,3.09
2023-02-28T08:39:08.562Z,2.85
2023-02-28T08:41:36.721Z,2.90
2023-02-28T08:44:10.714Z,2.81
2023-02-28T08:46:40.613Z,2.54
2023-02-28T08:49:11.512Z,2.73
2023-02-28T08:51:40.074Z,2.92
2023-02-28T08:54:17.036Z,2.91
2023-02-28T08:56:45.081Z,3.04
2023-02-28T08:59:13.537Z,3.11
2023-02-28T09:01:44.861Z,3.34
2023-02-28T09:04:18.617Z,3.54
2023-02-28T09:06:49.816Z,3.49
2023-02-28T09:09:20.142Z,3.51
2023-02-28T09:11:50.789Z,3.52
2023-02-28T09:14:22.957Z,3.37
2023-02-28T09:16:51.863Z,3.55
2023-02-28T09:19:19.967Z,3.90
2023-02-28T09:21:48.035Z,4.09
2023-02-28T09:24:16.613Z,4.05
2023-02-28T09:26:56.297Z,4.12
2023-02-28T09:29:34.897Z,4.17
2023-02-28T09:32:03.948Z,4.17
2023-02-28T09:34:32.526Z,4.00
2023-02-28T09:37:01.170Z,3.86
2023-02-28T09:39:51.611Z,4.10
2023-02-28T09:42:34.165Z,4.06
2023-02-28T09:45:12.766Z,4.34
2023-02-28T09:47:48.148Z,4.40
2023-02-28T09:50:25.242Z,4.53
2023-02-28T09:52:58.641Z,4.80
2023-02-28T09:55:35.213Z,4.98
2023-02-28T09:58:21.562Z,5.02
2023-02-28T10:01:03.039Z,4.83
2023-02-28T10:03:39.676Z,4.47
2023-02-28T10:06:22.093Z,4.54
2023-02-28T10:09:19.181Z,4.85
2023-02-28T10:11:54.404Z,4.74
2023-02-28T10:14:30.924Z,4.78
2023-02-28T10:17:05.752Z,4.84
2023-02-28T10:19:43.123Z,4.95
2023-02-28T10:22:23.628Z,5.46
2023-02-28T10:24:53.988Z,5.49
2023-02-28T10:27:38.242Z,5.14
2023-02-28T10:30:09.595Z,5.25
2023-02-28T10:32:47.863Z,5.27
2023-02-28T10:35:21.598Z,5.03
2023-02-28T10:37:58.692Z,5.02
2023-02-28T10:40:36.642Z,5.24
2023-02-28T10:43:25.744Z,5.18
2023-02-28T10:46:02.287Z,4.94
2023-02-28T10:48:35.722Z,4.85
2023-02-28T10:51:06.263Z,4.77
2023-02-28T10:53:59.258Z,4.78
2023-02-28T10:56:28.086Z,5.00
2023-02-28T10:58:59.684Z,5.11
2023-02-28T11:01:45.780Z,4.94
2023-02-28T11:04:57.943Z,5.00
2023-02-28T11:07:37.319Z,5.07
2023-02-28T11:10:22.399Z,4.92
2023-02-28T11:12:53.414Z,5.01
2023-02-28T11:15:28.576Z,5.03
2023-02-28T11:18:05.630Z,5.05
2023-02-28T11:20:37.462Z,5.15
2023-02-28T11:23:07.690Z,5.20
2023-02-28T11:25:39.102Z,5.51
2023-02-28T11:28:33.061Z,5.78
2023-02-28T11:31:07.788Z,5.59
2023-02-28T11:33:39.008Z,5.63
2023-02-28T11:36:26.296Z,5.74
2023-02-28T11:38:57.368Z,5.94
2023-02-28T11:41:48.628Z,5.97
2023-02-28T11:44:38.357Z,5.77
2023-02-28T11:47:21.324Z,5.56
2023-02-28T11:49:52.477Z,5.73
2023-02-28T11:52:38.933Z,5.77
2023-02-28T11:55:16.218Z,5.90
2023-02-28T11:58:32.943Z,5.82
2023-02-28T12:01:15.337Z,5.76
2023-02-28T12:03:52.422Z,5.70
2023-02-28T12:06:30.814Z,5.80
2023-02-28T12:09:35.341Z,5.85
2023-02-28T12:12:06.485Z,5.78
2023-02-28T12:15:12.015Z,5.62
2023-02-28T12:18:18.460Z,5.69
2023-02-28T12:21:00.266Z,5.75
2023-02-28T12:24:05.308Z,5.60
2023-02-28T12:26:41.929Z,5.61
2023-02-28T12:29:32.047Z,5.45
2023-02-28T12:32:06.496Z,5.57
2023-02-28T12:34:43.262Z,5.68
2023-02-28T12:37:23.582Z,5.62
2023-02-28T12:40:01.670Z,5.47
2023-02-28T12:42:34.809Z,5.49
2023-02-28T12:45:11.456Z,5.70
2023-02-28T12:47:43.861Z,5.86
2023-02-28T12:50:14.186Z,6.01
2023-02-28T12:53:01.727Z,6.29
2023-02-28T12:55:48.622Z,6.65
2023-02-28T12:58:31.484Z,6.78
2023-02-28T13:01:03.705Z,7.02
2023-02-28T13:03:50.732Z,6.94
2023-02-28T13:06:43.266Z,6.89
2023-02-28T13:09:17.009Z,6.74
2023-02-28T13:11:52.398Z,6.71
2023-02-28T13:14:31.585Z,6.47
2023-02-28T13:17:27.064Z,6.15
2023-02-28T13:19:56.138Z,6.00
2023-02-28T13:22:27.427Z,6.13
2023-02-28T13:24:57.749Z,6.05
2023-02-28T13:27:42.628Z,6.06
2023-02-28T13:30:48.732Z,6.07
2023-02-28T13:33:28.925Z,5.75
2023-02-28T13:36:16.436Z,5.73
2023-02-28T13:38:56.530Z,5.46
2023-02-28T13:41:44.254Z,5.51
2023-02-28T13:44:13.885Z,5.52
2023-02-28T13:46:49.965Z,5.50
2023-02-28T13:49:32.861Z,5.46
2023-02-28T13:52:07.379Z,5.46
2023-02-28T13:54:48.198Z,5.27
2023-02-28T13:57:38.383Z,5.34
2023-02-28T14:00:24.993Z,5.21
2023-02-28T14:03:05.407Z,5.10
2023-02-28T14:05:38.375Z,5.25
2023-02-28T14:08:22.323Z,5.32
2023-02-28T14:11:03.411Z,5.31
2023-02-28T14:13:49.467Z,5.27
2023-02-28T14:16:25.777Z,5.17
2023-02-28T14:19:13.841Z,5.15
2023-02-28T14:22:11.676Z,5.07
2023-02-28T14:25:04.486Z,5.03
2023-02-28T14:27:32.726Z,5.05
2023-02-28T14:30:29.191Z,4.93
2023-02-28T14:33:19.242Z,4.93
2023-02-28T14:36:03.040Z,4.91
2023-02-28T14:38:49.378Z,5.02
2023-02-28T14:41:38.660Z,5.08
2023-02-28T14:44:26.815Z,5.06
2023-02-28T14:47:09.946Z,5.06
2023-02-28T14:50:05.214Z,5.07
2023-02-28T14:52:34.570Z,5.11
2023-02-28T14:55:15.550Z,5.06
2023-02-28T14:57:53.826Z,5.12
2023-02-28T15:00:34.082Z,5.14
2023-02-28T15:03:30.674Z,5.10
2023-02-28T15:06:15.032Z,5.09
2023-02-28T15:08:48.248Z,5.01
2023-02-28T15:11:25.252Z,4.91
2023-02-28T15:13:56.508Z,4.92
2023-02-28T15:16:40.093Z,4.84
2023-02-28T15:19:36.218Z,4.85
2023-02-28T15:22:19.026Z,4.82
2023-02-28T15:24:51.878Z,4.74
2023-02-28T15:27:28.142Z,4.67
2023-02-28T15:30:07.737Z,4.60
2023-02-28T15:32:40.888Z,4.56
2023-02-28T15:35:19.579Z,4.54
2023-02-28T15:38:03.829Z,4.47
2023-02-28T15:40:38.153Z,4.42
2023-02-28T15:43:18.865Z,4.57
2023-02-28T15:45:52.489Z,4.59
2023-02-28T15:48:43.849Z,4.55
2023-02-28T15:51:22.055Z,4.39
2023-02-28T15:54:03.507Z,4.41
2023-02-28T15:56:48.454Z,4.44
2023-02-28T15:59:20.804Z,4.44
2023-02-28T16:02:20.725Z,4.35
2023-02-28T16:05:13.653Z,4.19
2023-02-28T16:07:45.183Z,4.09
2023-02-28T16:10:17.901Z,4.02
2023-02-28T16:12:46.587Z,3.93
2023-02-28T16:15:25.630Z,3.82
2023-02-28T16:17:57.474Z,3.75
2023-02-28T16:20:31.027Z,3.77
2023-02-28T16:23:03.960Z,3.74
2023-02-28T16:25:42.724Z,3.68
2023-02-28T16:28:21.608Z,3.61
2023-02-28T16:30:53.123Z,3.55
2023-02-28T16:33:21.757Z,3.47
2023-02-28T16:35:51.785Z,3.45
2023-02-28T16:38:22.720Z,3.42
2023-02-28T16:40:52.151Z,3.37
2023-02-28T16:43:24.849Z,3.29
2023-02-28T16:46:01.177Z,3.22
2023-02-28T16:48:31.890Z,3.17
2023-02-28T16:51:00.863Z,3.11
2023-02-28T16:53:29.081Z,3.06
2023-02-28T16:55:58.614Z,3.02
2023-02-28T16:58:30.412Z,2.99
2023-02-28T17:00:59.566Z,2.95
2023-02-28T17:03:33.798Z,2.89
2023-02-28T17:06:02.946Z,2.85
2023-02-28T17:08:33.688Z,2.81
2023-02-28T17:11:03.817Z,2.75
2023-02-28T17:13:32.127Z,2.71
2023-02-28T17:16:09.105Z,2.65
2023-02-28T17:18:37.506Z,2.63
2023-02-28T17:21:14.903Z,2.60
2023-02-28T17:23:45.669Z,2.53
2023-02-28T17:26:33.960Z,2.49
2023-02-28T17:29:02.394Z,2.45
2023-02-28T17:31:31.960Z,2.46
2023-02-28T17:34:01.096Z,2.45
2023-02-28T17:36:29.888Z,2.43
2023-02-28T17:39:00.463Z,2.42
2023-02-28T17:41:31.669Z,2.40
2023-02-28T17:43:59.941Z,2.39
2023-02-28T17:46:29.644Z,2.37
2023-02-28T17:48:58.136Z,2.33
2023-02-28T17:51:26.762Z,2.31
2023-02-28T17:53:54.800Z,2.31
2023-02-28T17:56:25.078Z,2.28
2023-02-28T17:58:56.216Z,2.26
2023-02-28T18:01:29.285Z,2.26
2023-02-28T18:03:57.377Z,2.26
2023-02-28T18:06:51.262Z,2.26
2023-02-28T18:09:23.890Z,2.24
2023-02-28T18:11:54.350Z,2.21
2023-02-28T18:14:26.376Z,2.20
2023-02-28T18:16:56.490Z,2.18
2023-02-28T18:19:24.770Z,2.16
2023-02-28T18:21:55.713Z,2.13
2023-02-28T18:24:24.962Z,2.10
2023-02-28T18:26:53.058Z,2.07
2023-02-28T18:29:25.128Z,2.05
2023-02-28T18:31:55.289Z,2.01
2023-02-28T18:34:25.807Z,1.97
2023-02-28T18:36:54.399Z,1.96
2023-02-28T18:39:22.785Z,1.94
2023-02-28T18:41:50.996Z,1.94
2023-02-28T18:44:20.959Z,1.89
2023-02-28T18:46:50.962Z,1.87
2023-02-28T18:49:19.518Z,1.79
2023-02-28T18:51:49.235Z,1.76
2023-02-28T18:54:17.728Z,1.71
2023-02-28T18:56:45.900Z,1.65
2023-02-28T18:59:14.003Z,1.59
2023-02-28T19:01:42.292Z,1.54
2023-02-28T19:04:13.829Z,1.48
2023-02-28T19:06:42.469Z,1.45
2023-02-28T19:09:10.890Z,1.39
2023-02-28T19:11:39.276Z,1.35
2023-02-28T19:14:09.360Z,1.34
2023-02-28T19:16:37.682Z,1.30
2023-02-28T19:19:10.303Z,1.27
2023-02-28T19:21:39.684Z,1.24
2023-02-28T19:24:08.135Z,1.19
2023-02-28T19:26:36.512Z,1.16
2023-02-28T19:29:05.758Z,1.12
2023-02-28T19:31:34.147Z,1.07
2023-02-28T19:34:02.491Z,1.02
2023-02-28T19:36:30.723Z,0.98
2023-02-28T19:38:58.997Z,0.93
2023-02-28T19:41:27.150Z,0.90
2023-02-28T19:43:55.960Z,0.85
2023-02-28T19:46:24.204Z,0.82
2023-02-28T19:48:55.495Z,0.79
2023-02-28T19:51:24.076Z,0.74
2023-02-28T19:53:52.455Z,0.70
2023-02-28T19:56:21.262Z,0.66
2023-02-28T19:58:49.238Z,0.64
2023-02-28T20:01:20.599Z,0.59
2023-02-28T20:03:52.399Z,0.59
2023-02-28T20:06:20.352Z,0.59
2023-02-28T20:08:48.585Z,0.57
2023-02-28T20:11:17.343Z,0.56
2023-02-28T20:13:45.655Z,0.54
2023-02-28T20:16:15.681Z,0.54
2023-02-28T20:18:46.801Z,0.52
2023-02-28T20:21:14.839Z,0.51
2023-02-28T20:23:43.395Z,0.49
2023-02-28T20:26:13.281Z,0.48
2023-02-28T20:28:43.392Z,0.46
2023-02-28T20:31:18.525Z,0.44
2023-02-28T20:33:47.850Z,0.42
2023-02-28T20:36:16.805Z,0.37
2023-02-28T20:38:45.290Z,0.35
2023-02-28T20:41:13.649Z,0.31
2023-02-28T20:43:42.265Z,0.27
2023-02-28T20:46:13.853Z,0.21
2023-02-28T20:48:41.888Z,0.16
2023-02-28T20:51:11.068Z,0.12
2023-02-28T20:53:39.665Z,0.08
2023-02-28T20:56:13.769Z,0.05
2023-02-28T20:58:43.776Z,0.00
2023-02-28T21:01:18.126Z,-0.04
2023-02-28T21:03:53.755Z,-0.06
2023-02-28T21:06:28.583Z,-0.08
2023-02-28T21:08:58.099Z,-0.12
2023-02-28T21:11:31.911Z,-0.16
2023-02-28T21:14:01.492Z,-0.20
2023-02-28T21:16:31.374Z,-0.23
2023-02-28T21:19:04.228Z,-0.28
2023-02-28T21:21:43.067Z,-0.30
2023-02-28T21:24:19.829Z,-0.32
2023-02-28T21:26:48.552Z,-0.36
2023-02-28T21:29:16.878Z,-0.38
2023-02-28T21:31:45.219Z,-0.41
2023-02-28T21:34:14.031Z,-0.44
2023-02-28T21:36:47.382Z,-0.46
2023-02-28T21:39:25.858Z,-0.48
2023-02-28T21:41:54.734Z,-0.51
2023-02-28T21:44:22.923Z,-0.53
2023-02-28T21:46:56.975Z,-0.56
2023-02-28T21:49:25.027Z,-0.57
2023-02-28T21:51:53.614Z,-0.59
2023-02-28T21:54:21.690Z,-0.63
2023-02-28T21:56:52.491Z,-0.64
2023-02-28T21:59:20.670Z,-0.65
2023-02-28T22:01:51.304Z,-0.68
2023-02-28T22:04:22.429Z,-0.71
2023-02-28T22:06:53.217Z,-0.73
2023-02-28T22:09:22.116Z,-0.75
2023-02-28T22:11:50.409Z,-0.76
2023-02-28T22:14:20.925Z,-0.77
2023-02-28T22:16:54.158Z,-0.80
2023-02-28T22:19:23.774Z,-0.81
2023-02-28T22:21:54.152Z,-0.84
2023-02-28T22:24:32.376Z,-0.87
2023-02-28T22:27:00.343Z,-0.91
2023-02-28T22:29:28.687Z,-0.93
2023-02-28T22:31:56.717Z,-0.95
2023-02-28T22:34:24.619Z,-0.96
2023-02-28T22:36:54.404Z,-1.00
2023-02-28T22:39:22.363Z,-1.02
2023-02-28T22:41:50.613Z,-1.03
2023-02-28T22:44:18.602Z,-1.05
2023-02-28T22:46:47.001Z,-1.05
2023-02-28T22:49:14.942Z,-1.08
2023-02-28T22:51:44.495Z,-1.08
2023-02-28T22:54:12.471Z,-1.09
2023-02-28T22:56:40.578Z,-1.10
2023-02-28T22:59:08.566Z,-1.11
2023-02-28T23:01:36.651Z,-1.13
2023-02-28T23:04:05.193Z,-1.15
2023-02-28T23:06:45.037Z,-1.15
2023-02-28T23:09:21.624Z,-1.16
2023-02-28T23:11:50.992Z,-1.16
2023-02-28T23:14:20.827Z,-1.17
2023-02-28T23:16:52.264Z,-1.18
2023-02-28T23:19:25.294Z,-1.19
2023-02-28T23:21:53.832Z,-1.20
2023-02-28T23:24:25.987Z,-1.21
2023-02-28T23:26:57.549Z,-1.23
2023-02-28T23:29:27.590Z,-1.26
2023-02-28T23:31:57.998Z,-1.28
2023-02-28T23:34:28.053Z,-1.30
2023-02-28T23:37:01.552Z,-1.32
2023-02-28T23:39:31.269Z,-1.35
2023-02-28T23:42:03.038Z,-1.39
2023-02-28T23:44:31.901Z,-1.43
2023-02-28T23:47:00.935Z,-1.44
2023-02-28T23:49:28.974Z,-1.44
2023-02-28T23:51:57.628Z,-1.43
2023-02-28T23:54:26.051Z,-1.46
2023-02-28T23:56:54.547Z,-1.47
2023-02-28T23:59:22.599Z,-1.47
